Time;durP1;ratioP1;P1;durP2;ratioP2;P2;SDS_P1;SDS_P2;PMS_P1;PMS_P2;Temp;Humidity;BMP_temperature;BMP_pressure;BME280_temperature;BME280_humidity;BME280_pressure;Samples;Min_cycle;Max_cycle;Signal;HPM_P1;HPM_P2
2022/02/09 00:00:17;;;;;;;25.70;12.47;;;;;;;0.88;68.07;101456.67;1756747;81;25738;-63
2022/02/09 00:03:04;;;;;;;25.90;13.30;;;;;;;0.91;67.90;101454.77;1791391;78;25456;-62
2022/02/09 00:05:29;;;;;;;28.57;12.13;;;;;;;0.93;67.65;101452.05;1816617;78;27583;-63
2022/02/09 00:10:22;;;;;;;27.00;13.00;;;;;;;0.99;67.65;101462.89;1791845;80;27490;-62
2022/02/09 00:13:03;;;;;;;29.87;12.63;;;;;;;1.01;67.64;101469.85;1793435;80;26352;-62
2022/02/09 01:11:26;;;;;;;21.80;10.48;;;;;;;1.31;66.57;101452.83;1756264;81;27523;-61
2022/02/09 01:57:47;;;;;;;21.42;10.78;;;;;;;1.90;65.53;101411.56;1757886;81;29626;-61
2022/02/09 02:00:15;;;;;;;21.68;10.18;;;;;;;1.91;65.62;101427.03;1790710;79;26291;-61
2022/02/09 02:02:42;;;;;;;21.17;10.25;;;;;;;1.86;65.83;101423.24;1791050;80;25710;-61
2022/02/09 02:05:09;;;;;;;24.32;11.05;;;;;;;1.79;65.82;101420.45;1791021;79;26206;-62
2022/02/09 02:07:55;;;;;;;28.12;10.88;;;;;;;1.75;66.02;101428.97;1790949;80;25659;-61
2022/02/09 02:10:30;;;;;;;27.60;13.10;;;;;;;1.78;66.18;101435.48;1790308;79;28180;-61
2022/02/09 02:18:13;;;;;;;20.10;10.70;;;;;;;1.64;65.57;101445.81;1792517;79;26379;-61
2022/02/09 02:21:00;;;;;;;12.05;7.20;;;;;;;1.68;66.04;101443.41;1824996;78;25818;-61
2022/02/09 02:29:14;;;;;;;18.92;6.72;;;;;;;1.64;67.26;101440.50;1782248;80;25728;-61
2022/02/09 02:31:53;;;;;;;13.05;6.80;;;;;;;1.60;67.83;101441.09;1789014;80;25830;-62
2022/02/09 02:39:38;;;;;;;15.28;7.45;;;;;;;1.53;68.94;101438.27;1764201;80;25951;-61
2022/02/09 03:09:10;;;;;;;11.60;6.08;;;;;;;1.44;71.24;101442.61;1790728;80;25829;-61
2022/02/09 03:12:03;;;;;;;13.78;6.15;;;;;;;1.37;71.53;101440.20;1788481;80;25656;-61
2022/02/09 03:14:26;;;;;;;14.07;7.10;;;;;;;1.34;71.70;101446.09;1787257;80;25698;-61
2022/02/09 03:16:54;;;;;;;17.00;6.25;;;;;;;1.32;72.13;101438.66;1787777;80;27512;-62
2022/02/09 03:25:17;;;;;;;13.18;7.45;;;;;;;1.52;72.70;101452.00;1790109;80;26245;-62
2022/02/09 03:44:10;;;;;;;14.18;5.25;;;;;;;1.79;73.89;101467.73;1819227;78;28169;-62
2022/02/09 03:51:54;;;;;;;10.23;5.05;;;;;;;1.74;74.07;101460.44;1736145;80;25698;-62
2022/02/09 03:54:19;;;;;;;13.00;5.95;;;;;;;1.71;74.15;101452.59;1766237;80;27316;-62
2022/02/09 03:56:59;;;;;;;9.80;5.87;;;;;;;1.66;74.91;101453.25;1767069;80;27586;-61
2022/02/09 03:59:24;;;;;;;11.33;5.40;;;;;;;1.61;75.51;101448.58;1767537;80;25492;-62
2022/02/09 04:01:51;;;;;;;8.88;5.22;;;;;;;1.59;75.29;101447.33;1782672;80;25821;-62
2022/02/09 04:04:18;;;;;;;15.38;6.03;;;;;;;1.60;75.31;101441.55;1784331;79;26194;-62
2022/02/09 04:06:49;;;;;;;10.13;4.78;;;;;;;1.57;75.88;101449.16;1783952;80;25860;-62
2022/02/09 04:09:16;;;;;;;13.20;4.67;;;;;;;1.62;76.04;101447.66;1773495;79;28212;-62
2022/02/09 04:11:49;;;;;;;10.38;4.53;;;;;;;1.62;76.67;101447.66;1764281;81;26401;-62
2022/02/09 04:14:36;;;;;;;12.45;5.33;;;;;;;1.64;76.34;101449.79;1764008;80;25761;-62
2022/02/09 04:17:07;;;;;;;8.88;4.03;;;;;;;1.67;77.11;101445.22;1768334;80;25510;-62
2022/02/09 04:44:20;;;;;;;10.23;5.12;;;;;;;2.15;76.69;101481.73;1784041;80;25801;-62
2022/02/09 04:54:31;;;;;;;12.33;5.00;;;;;;;2.16;77.59;101499.39;1793742;80;25788;-62
2022/02/09 04:57:03;;;;;;;11.83;6.37;;;;;;;2.17;77.53;101491.83;1792296;80;25653;-62
2022/02/09 05:19:07;;;;;;;8.70;5.35;;;;;;;2.34;79.39;101526.09;1793598;80;25800;-62
2022/02/09 05:28:43;;;;;;;14.45;6.10;;;;;;;2.51;78.79;101542.63;1793897;80;27485;-62
2022/02/09 05:31:10;;;;;;;16.50;8.70;;;;;;;2.55;78.88;101539.41;1790756;80;25728;-62
2022/02/09 05:33:38;;;;;;;14.60;7.10;;;;;;;2.59;78.61;101545.84;1760985;81;25717;-62
2022/02/09 05:36:07;;;;;;;16.55;6.58;;;;;;;2.64;78.53;101545.66;1760941;81;25720;-62
2022/02/09 05:38:33;;;;;;;25.68;11.38;;;;;;;2.69;78.20;101555.61;1760687;81;25648;-62
2022/02/09 05:41:00;;;;;;;15.55;8.58;;;;;;;2.75;77.75;101551.83;1766545;80;27571;-63
2022/02/09 05:43:28;;;;;;;18.92;7.45;;;;;;;2.81;77.56;101557.74;1792392;80;27348;-62
2022/02/09 05:51:18;;;;;;;8.20;4.70;;;;;;;3.11;77.16;101563.09;1793448;80;25890;-63
2022/02/09 05:53:55;;;;;;;13.05;5.50;;;;;;;3.23;77.06;101567.84;1785498;79;27402;-63
2022/02/09 05:56:31;;;;;;;20.00;8.50;;;;;;;3.32;76.76;101577.70;1757862;81;25742;-63
2022/02/09 05:58:47;;;;;;;14.80;7.03;;;;;;;3.40;76.77;101577.73;1757400;81;25726;-63
2022/02/09 06:01:07;;;;;;;17.65;6.90;;;;;;;3.47;76.33;101586.75;1759538;81;25774;-63
2022/02/09 06:03:34;;;;;;;12.95;6.55;;;;;;;3.47;75.92;101579.66;1760619;80;25769;-63
2022/02/09 06:06:03;;;;;;;24.90;8.38;;;;;;;3.47;75.77;101587.64;1776599;80;28290;-63
2022/02/09 06:08:30;;;;;;;30.30;16.23;;;;;;;3.49;75.65;101591.55;1793567;80;25524;-62
2022/02/09 06:11:25;;;;;;;22.82;9.45;;;;;;;3.47;75.49;101600.94;1793906;80;25732;-62
2022/02/09 06:13:55;;;;;;;26.70;11.73;;;;;;;3.48;75.32;101599.13;1789446;80;25746;-62
2022/02/09 06:21:44;;;;;;;16.87;8.18;;;;;;;3.41;75.45;101599.86;1763843;80;25731;-63
2022/02/09 06:24:11;;;;;;;16.75;7.37;;;;;;;3.42;75.54;101609.13;1767473;80;25762;-62
2022/02/09 06:26:37;;;;;;;23.38;6.97;;;;;;;3.42;75.74;101615.77;1794003;80;25733;-63
2022/02/09 06:29:04;;;;;;;17.60;8.45;;;;;;;3.42;76.01;101618.44;1789355;80;25758;-63
2022/02/09 06:31:32;;;;;;;11.18;5.90;;;;;;;3.43;76.42;101629.47;1793645;80;27535;-63
2022/02/09 06:34:00;;;;;;;17.23;6.10;;;;;;;3.49;76.84;101630.12;1793590;80;25741;-63
2022/02/09 06:36:26;;;;;;;12.10;5.83;;;;;;;3.58;77.05;101630.58;1819002;78;25872;-62
2022/02/09 06:38:53;;;;;;;9.45;5.90;;;;;;;3.68;76.97;101636.34;1818931;78;25792;-63
2022/02/09 06:41:20;;;;;;;12.33;5.40;;;;;;;3.76;76.83;101630.19;1818916;78;26313;-62
2022/02/09 06:43:47;;;;;;;6.40;4.03;;;;;;;3.89;76.72;101637.14;1786703;80;28067;-62
2022/02/09 06:46:14;;;;;;;10.72;4.20;;;;;;;4.00;76.41;101639.28;1821844;78;25931;-63
2022/02/09 06:48:41;;;;;;;11.60;4.12;;;;;;;4.10;76.07;101634.86;1794785;78;25800;-62
2022/02/09 06:51:12;;;;;;;9.20;4.60;;;;;;;4.18;75.73;101636.69;1824918;78;25780;-62
2022/02/09 06:53:47;;;;;;;7.55;3.85;;;;;;;4.25;75.39;101636.81;1823611;78;25796;-62
2022/02/09 06:56:05;;;;;;;10.28;4.83;;;;;;;4.31;75.04;101643.16;1818737;78;27501;-62
2022/02/09 07:01:04;;;;;;;10.53;5.60;;;;;;;4.50;74.68;101636.94;1825083;78;25812;-62
2022/02/09 07:03:33;;;;;;;19.23;6.60;;;;;;;4.58;74.42;101645.42;1825352;78;26197;-62
2022/02/09 07:05:59;;;;;;;18.35;9.23;;;;;;;4.68;74.40;101650.69;1795571;78;25730;-62
2022/02/09 07:08:27;;;;;;;13.53;5.78;;;;;;;4.76;74.04;101655.62;1789120;80;27480;-62
2022/02/09 07:10:55;;;;;;;12.03;5.70;;;;;;;4.85;73.89;101660.97;1798085;78;25829;-62
2022/02/09 07:13:22;;;;;;;10.28;4.85;;;;;;;4.90;73.44;101657.59;1825302;78;25780;-62
2022/02/09 07:15:53;;;;;;;9.18;3.42;;;;;;;4.94;73.17;101663.63;1824749;78;25615;-62
2022/02/09 07:18:18;;;;;;;6.35;3.70;;;;;;;4.94;72.85;101670.30;1824578;78;25804;-62
2022/02/09 07:28:37;;;;;;;;;;;;;;;4.94;72.76;101672.96;1827343;78;25649;-63
2022/02/09 07:31:07;;;;;;;5.80;3.40;;;;;;;4.97;72.82;101673.70;1792596;80;25708;-63
2022/02/09 07:33:39;;;;;;;6.15;3.85;;;;;;;4.99;72.84;101677.61;1759924;81;27461;-63
2022/02/09 07:36:08;;;;;;;9.30;3.80;;;;;;;5.00;72.89;101673.52;1792554;80;25504;-64
2022/02/09 07:38:36;;;;;;;6.72;3.77;;;;;;;5.05;72.79;101675.11;1792949;80;25694;-63
2022/02/09 07:41:04;;;;;;;8.50;3.90;;;;;;;5.08;72.58;101692.27;1778443;78;25636;-63
2022/02/09 07:43:43;;;;;;;7.78;3.35;;;;;;;5.09;72.64;101687.33;1770570;81;25778;-64
2022/02/09 07:51:38;;;;;;;7.50;3.52;;;;;;;5.26;72.21;101700.66;1782432;78;25523;-63
2022/02/09 07:53:49;;;;;;;6.42;3.80;;;;;;;5.30;72.18;101705.37;1780365;80;26657;-64
2022/02/09 07:56:13;;;;;;;6.95;4.20;;;;;;;5.32;72.19;101712.38;1755379;80;25919;-64
2022/02/09 07:58:41;;;;;;;8.13;4.62;;;;;;;5.33;71.96;101715.89;1802797;78;27525;-64
2022/02/09 08:01:07;;;;;;;8.70;4.53;;;;;;;5.34;71.97;101704.28;1747411;81;25679;-63
2022/02/09 08:03:36;;;;;;;11.08;4.53;;;;;;;5.38;71.87;101719.17;1757867;80;25719;-63
2022/02/09 08:06:04;;;;;;;12.58;6.12;;;;;;;5.39;71.92;101715.56;1773922;80;25751;-64
2022/02/09 08:08:33;;;;;;;18.82;9.10;;;;;;;5.38;71.79;101719.17;1818902;78;25802;-64
2022/02/09 08:11:14;;;;;;;10.38;5.28;;;;;;;5.43;71.83;101720.27;1819239;78;27397;-64
2022/02/09 08:27:34;;;;;;;7.75;4.05;;;;;;;5.78;70.38;101734.45;1819086;78;25977;-63
2022/02/09 08:32:44;;;;;;;7.50;3.80;;;;;;;5.97;70.49;101737.48;1786600;80;25801;-63
2022/02/09 08:35:10;;;;;;;8.60;4.40;;;;;;;6.09;70.04;101727.97;1816959;78;25756;-63
2022/02/09 08:37:37;;;;;;;9.15;3.87;;;;;;;6.14;69.37;101736.58;1818959;78;27459;-63
2022/02/09 08:40:07;;;;;;;8.33;3.98;;;;;;;6.22;69.17;101738.39;1802788;78;25819;-63
2022/02/09 08:42:35;;;;;;;8.58;4.28;;;;;;;6.31;68.90;101745.51;1788588;79;25777;-63
2022/02/09 08:45:02;;;;;;;7.08;4.45;;;;;;;6.38;68.36;101749.56;1791214;78;26104;-63
2022/02/09 08:47:29;;;;;;;7.85;4.40;;;;;;;6.36;67.76;101751.45;1819000;78;25811;-62
2022/02/09 08:49:55;;;;;;;8.40;3.60;;;;;;;6.38;67.40;101754.91;1819118;78;27947;-62
2022/02/09 08:52:22;;;;;;;8.15;3.58;;;;;;;6.37;66.59;101759.37;1817920;78;25784;-62
2022/02/09 08:54:50;;;;;;;13.05;4.15;;;;;;;6.35;66.75;101759.08;1818989;78;25674;-62
2022/02/09 08:57:19;;;;;;;6.83;3.37;;;;;;;6.41;66.92;101752.92;1819171;78;25770;-63
2022/02/09 08:59:50;;;;;;;9.85;2.92;;;;;;;6.46;66.32;101763.36;1794063;78;25442;-62
2022/02/09 09:02:19;;;;;;;13.00;3.42;;;;;;;6.58;66.43;101758.68;1779078;78;26853;-62
2022/02/09 09:04:56;;;;;;;7.15;3.52;;;;;;;6.69;66.02;101768.77;1759230;80;25773;-62
2022/02/09 09:07:30;;;;;;;8.80;3.72;;;;;;;6.76;65.42;101770.62;1759296;81;25732;-62
2022/02/09 09:10:02;;;;;;;10.55;4.03;;;;;;;6.78;65.10;101771.38;1758460;81;25632;-62
2022/02/09 10:04:04;;;;;;;7.97;3.17;;;;;;;8.36;57.33;101768.70;1794866;79;25835;-63
2022/02/09 10:32:17;;;;;;;5.62;2.25;;;;;;;7.89;55.58;101788.59;1762584;81;26455;-64
2022/02/09 10:34:22;;;;;;;8.65;2.67;;;;;;;7.79;54.55;101797.19;1758576;79;25762;-63
2022/02/09 10:36:59;;;;;;;10.90;1.95;;;;;;;7.69;54.99;101813.42;1763013;79;27576;-64
2022/02/09 10:39:42;;;;;;;8.83;2.08;;;;;;;7.63;54.50;101813.30;1762445;81;25518;-62
2022/02/09 10:42:12;;;;;;;6.40;2.40;;;;;;;7.57;54.33;101816.36;1757791;81;25830;-62
2022/02/09 10:44:47;;;;;;;11.23;2.30;;;;;;;7.55;53.92;101810.23;1767045;79;25774;-63
2022/02/09 10:47:25;;;;;;;12.70;2.62;;;;;;;7.56;54.59;101811.11;1762704;79;25786;-63
2022/02/09 10:50:22;;;;;;;9.60;3.15;;;;;;;7.59;54.22;101806.89;1780972;80;27288;-63
2022/02/09 10:52:49;;;;;;;9.70;3.30;;;;;;;7.56;54.39;101802.58;1771446;80;25741;-62
2022/02/09 10:55:39;;;;;;;5.97;2.92;;;;;;;7.58;54.78;101807.38;1794440;80;25477;-64
2022/02/09 10:58:15;;;;;;;3.33;1.90;;;;;;;7.60;54.13;101808.61;1735777;80;26218;-63
2022/02/09 11:00:45;;;;;;;7.75;2.20;;;;;;;7.62;54.24;101812.07;1793217;80;25733;-62
2022/02/09 11:03:27;;;;;;;7.25;2.27;;;;;;;7.60;53.98;101797.91;1767718;80;27467;-62
2022/02/09 11:05:55;;;;;;;8.08;2.08;;;;;;;7.58;54.51;101800.69;1793949;80;25947;-62
2022/02/09 11:08:22;;;;;;;9.28;3.08;;;;;;;7.58;54.80;101817.20;1786825;80;25752;-62
2022/02/09 11:10:53;;;;;;;9.03;2.92;;;;;;;7.49;55.75;101822.16;1759245;81;25711;-63
2022/02/09 11:13:21;;;;;;;7.78;2.27;;;;;;;7.45;56.39;101821.09;1732434;80;25892;-63
2022/02/09 11:15:49;;;;;;;8.28;2.72;;;;;;;7.41;56.82;101824.42;1763152;81;27501;-63
2022/02/09 11:18:21;;;;;;;8.80;2.85;;;;;;;7.38;57.26;101823.74;1764089;79;25633;-62
2022/02/09 11:21:08;;;;;;;8.78;3.10;;;;;;;7.33;57.55;101822.67;1794916;79;25841;-62
2022/02/09 11:23:54;;;;;;;12.73;2.77;;;;;;;7.32;57.61;101817.81;1774938;79;25834;-62
2022/02/09 11:26:53;;;;;;;6.15;2.70;;;;;;;7.27;57.54;101821.21;1769889;79;25640;-63
2022/02/09 11:35:26;;;;;;;8.30;3.10;;;;;;;7.28;57.44;101815.40;1763212;80;25676;-62
2022/02/09 11:40:48;;;;;;;13.60;3.22;;;;;;;7.16;57.33;101829.87;1765298;79;25493;-63
2022/02/09 11:43:34;;;;;;;11.35;3.50;;;;;;;7.13;57.21;101825.17;1762141;80;28152;-63
2022/02/09 11:55:42;;;;;;;9.43;3.15;;;;;;;7.06;56.62;101831.34;1679607;83;26289;-63
2022/02/09 11:58:35;;;;;;;9.50;3.02;;;;;;;7.15;56.54;101836.16;1794741;79;33255;-62
2022/02/09 12:12:15;;;;;;;16.02;3.02;;;;;;;7.29;56.40;101834.53;1796437;78;27590;-62
2022/02/09 12:15:28;;;;;;;12.00;3.72;;;;;;;7.34;56.46;101833.31;1786545;78;25806;-63
2022/02/09 12:20:31;;;;;;;7.78;2.25;;;;;;;7.82;54.83;101810.87;1797176;78;25842;-62
2022/02/09 12:23:25;;;;;;;12.82;2.80;;;;;;;8.07;53.39;101818.28;1818619;78;25768;-62
2022/02/09 12:30:10;;;;;;;11.00;2.87;;;;;;;8.42;51.39;101830.47;1804444;78;25515;-63
2022/02/09 12:32:38;;;;;;;9.40;2.40;;;;;;;8.59;51.28;101837.00;1804783;78;25761;-62
2022/02/09 12:35:09;;;;;;;9.18;2.20;;;;;;;8.75;50.66;101839.55;1799936;78;25784;-63
2022/02/09 12:37:44;;;;;;;10.58;2.60;;;;;;;8.98;49.46;101828.30;1804001;78;25768;-63
2022/02/09 12:40:21;;;;;;;9.23;2.95;;;;;;;9.16;49.09;101841.01;1788582;78;28350;-63
2022/02/09 12:42:52;;;;;;;11.53;2.90;;;;;;;9.45;48.72;101832.85;1805899;78;26623;-63
2022/02/09 12:45:23;;;;;;;5.78;2.52;;;;;;;9.61;47.98;101844.75;1786876;79;25813;-64
2022/02/09 12:47:56;;;;;;;8.25;2.75;;;;;;;9.66;48.46;101827.85;1812564;78;25477;-63
2022/02/09 12:50:34;;;;;;;7.05;2.83;;;;;;;9.78;48.59;101828.34;1820891;78;25780;-63
2022/02/09 12:53:03;;;;;;;8.58;3.02;;;;;;;9.93;49.14;101828.27;1822237;78;27583;-62
2022/02/09 12:55:33;;;;;;;8.35;2.80;;;;;;;10.22;48.01;101825.38;1773330;80;25744;-63
2022/02/09 12:58:08;;;;;;;6.03;2.87;;;;;;;10.61;47.60;101825.75;1808895;78;25750;-63
2022/02/09 13:00:43;;;;;;;8.98;2.72;;;;;;;11.04;46.76;101824.42;1754488;80;25927;-63
2022/02/09 13:03:19;;;;;;;9.38;2.35;;;;;;;11.00;44.42;101839.10;1759929;81;25729;-63
2022/02/09 13:05:52;;;;;;;7.80;2.37;;;;;;;10.86;45.16;101840.58;1759397;81;27498;-63
2022/02/09 13:08:25;;;;;;;5.47;2.25;;;;;;;10.68;45.21;101842.79;1759886;81;25802;-63
2022/02/09 13:13:56;;;;;;;10.20;2.22;;;;;;;10.26;44.85;101854.64;1791236;80;25523;-62
2022/02/09 13:16:39;;;;;;;10.98;2.35;;;;;;;10.07;45.45;101851.51;1790785;80;26113;-62
2022/02/09 13:19:26;;;;;;;9.23;2.33;;;;;;;9.99;45.61;101854.25;1788724;80;27064;-64
2022/02/09 13:24:37;;;;;;;9.28;2.25;;;;;;;9.96;46.29;101861.64;1790202;80;25847;-62
2022/02/09 14:17:48;;;;;;;7.72;3.05;;;;;;;8.11;50.44;101890.83;1733843;82;25818;-64
2022/02/09 14:57:43;;;;;;;16.73;4.95;;;;;;;7.88;49.61;101918.14;1707910;83;25705;-62
2022/02/09 15:00:12;;;;;;;19.30;4.83;;;;;;;7.77;49.94;101929.01;1716200;83;25689;-63
2022/02/09 15:08:12;;;;;;;13.80;4.62;;;;;;;7.49;50.78;101927.92;1716397;83;27606;-62
2022/02/09 15:10:43;;;;;;;19.95;4.87;;;;;;;7.39;50.98;101930.76;1702436;83;25897;-62
2022/02/09 15:13:58;;;;;;;18.80;4.45;;;;;;;7.28;51.20;101939.38;1714366;83;25795;-64
2022/02/09 15:15:49;;;;;;;16.57;4.37;;;;;;;7.20;51.41;101931.80;1699771;83;25858;-64
2022/02/09 15:23:16;;;;;;;18.27;6.12;;;;;;;6.99;52.10;101938.32;1710637;83;26442;-62
2022/02/09 15:25:43;;;;;;;23.20;5.03;;;;;;;6.91;52.46;101938.73;1713551;83;25812;-63
2022/02/09 15:28:11;;;;;;;20.97;5.30;;;;;;;6.83;52.68;101931.14;1716364;83;25744;-63
2022/02/09 15:30:51;;;;;;;17.23;5.03;;;;;;;6.75;52.80;101945.41;1713143;82;25740;-63
2022/02/09 15:33:14;;;;;;;14.65;6.08;;;;;;;6.70;53.00;101942.98;1715044;82;28703;-63
2022/02/09 15:35:42;;;;;;;22.30;5.58;;;;;;;6.67;53.23;101951.64;1712946;83;26619;-62
2022/02/09 15:38:18;;;;;;;26.05;4.67;;;;;;;6.63;53.30;101946.93;1712751;83;25776;-62
2022/02/09 15:40:51;;;;;;;13.72;3.92;;;;;;;6.56;53.33;101953.06;1698074;83;25711;-62
2022/02/09 16:21:43;;;;;;;18.67;5.00;;;;;;;4.95;57.25;101973.36;1717201;83;26367;-63
2022/02/09 16:23:51;;;;;;;12.40;4.92;;;;;;;4.86;57.41;101975.98;1699972;83;25644;-62
2022/02/09 16:45:25;;;;;;;36.13;21.12;;;;;;;4.19;59.46;101982.87;1717255;82;25709;-63
2022/02/09 16:47:58;;;;;;;24.95;10.18;;;;;;;4.15;59.69;101991.91;1711395;82;27623;-63
2022/02/09 16:50:26;;;;;;;15.32;4.37;;;;;;;4.07;59.83;101999.36;1716362;81;26042;-63
2022/02/09 17:08:28;;;;;;;16.93;4.15;;;;;;;3.90;61.49;102010.25;1705928;83;25892;-62
2022/02/09 17:18:50;;;;;;;12.70;4.30;;;;;;;3.94;62.19;102011.46;1718887;83;25456;-63
2022/02/09 17:21:20;;;;;;;11.88;4.47;;;;;;;3.88;62.11;102019.23;1718037;82;28227;-63
2022/02/09 17:23:49;;;;;;;22.00;6.20;;;;;;;3.89;62.44;102008.98;1721114;82;25520;-62
2022/02/09 17:26:17;;;;;;;15.72;7.00;;;;;;;3.88;62.31;102016.09;1722343;82;25765;-63
2022/02/09 17:28:45;;;;;;;13.72;4.42;;;;;;;3.90;62.30;102026.22;1724168;83;26441;-63
2022/02/09 17:58:14;;;;;;;21.27;10.08;;;;;;;3.42;62.23;102042.73;1719305;82;25730;-62
2022/02/09 18:00:37;;;;;;;34.83;12.75;;;;;;;3.28;62.49;102041.03;1716631;83;27478;-64
2022/02/09 18:03:06;;;;;;;44.83;18.87;;;;;;;3.22;62.85;102047.92;1719105;82;25794;-65
2022/02/09 18:08:18;;;;;;;35.45;14.70;;;;;;;3.21;63.62;102048.84;1728235;83;25535;-63
2022/02/09 18:42:51;;;;;;;123.65;56.83;;;;;;;3.56;63.91;102054.17;1720932;82;27282;-63
2022/02/09 18:45:06;;;;;;;107.12;51.88;;;;;;;3.53;63.83;102059.60;1716744;83;25487;-63
2022/02/09 19:03:37;;;;;;;52.30;22.63;;;;;;;3.30;64.89;102065.79;1732181;82;25945;-63
2022/02/09 19:06:18;;;;;;;31.82;15.70;;;;;;;3.21;65.01;102060.81;1732196;82;28161;-63
2022/02/09 19:08:56;;;;;;;37.03;14.80;;;;;;;3.16;65.98;102060.13;1730370;82;25538;-62
2022/02/09 19:16:55;;;;;;;50.03;18.70;;;;;;;3.13;66.13;102068.61;1720928;83;25744;-62
2022/02/09 19:28:21;;;;;;;46.40;19.55;;;;;;;3.30;66.17;102073.77;1721154;82;25902;-62
2022/02/09 19:30:16;;;;;;;46.25;18.37;;;;;;;3.33;66.10;102070.13;1698694;83;26359;-62
2022/02/09 19:44:10;;;;;;;51.58;18.40;;;;;;;3.25;65.75;102088.56;1706001;84;25901;-62
2022/02/09 19:48:24;;;;;;;40.45;17.65;;;;;;;3.19;65.41;102087.91;1705556;83;25718;-63
2022/02/09 19:51:12;;;;;;;37.73;17.05;;;;;;;3.11;65.34;102086.41;1702739;83;25727;-63
2022/02/09 19:53:30;;;;;;;38.45;16.87;;;;;;;3.06;65.29;102078.19;1686495;84;26139;-62
2022/02/09 19:56:00;;;;;;;32.28;14.70;;;;;;;3.00;64.93;102079.30;1688217;83;25786;-61
2022/02/09 19:58:29;;;;;;;35.08;13.72;;;;;;;2.90;64.88;102078.74;1695147;83;27858;-62
2022/02/09 20:00:56;;;;;;;25.20;13.43;;;;;;;2.81;64.79;102078.63;1699621;83;25811;-62
2022/02/09 20:03:18;;;;;;;34.33;11.80;;;;;;;2.71;64.69;102075.88;1696330;83;25786;-62
2022/02/09 20:05:47;;;;;;;24.60;11.50;;;;;;;2.59;64.77;102078.94;1696542;84;25751;-62
2022/02/09 20:08:14;;;;;;;24.10;10.78;;;;;;;2.53;64.86;102083.14;1699018;84;25740;-62
2022/02/09 20:10:40;;;;;;;25.68;11.18;;;;;;;2.47;65.08;102086.39;1704515;84;27473;-63
2022/02/09 20:13:07;;;;;;;24.85;11.68;;;;;;;2.44;65.57;102079.88;1704706;83;25831;-62
2022/02/09 20:15:34;;;;;;;29.87;13.25;;;;;;;2.40;65.83;102076.05;1703831;83;26227;-63
2022/02/09 20:18:01;;;;;;;30.70;13.20;;;;;;;2.43;65.93;102073.27;1701673;84;26170;-63
2022/02/09 20:20:29;;;;;;;26.55;12.63;;;;;;;2.45;66.26;102067.01;1683815;85;25633;-63
2022/02/09 20:22:58;;;;;;;27.48;13.80;;;;;;;2.47;66.30;102074.91;1671568;85;27493;-62
2022/02/09 20:25:27;;;;;;;29.60;13.22;;;;;;;2.50;66.36;102073.02;1673731;85;26211;-62
2022/02/09 20:27:55;;;;;;;33.38;13.83;;;;;;;2.54;66.90;102072.92;1697975;82;25838;-63
2022/02/09 20:30:30;;;;;;;24.63;13.05;;;;;;;2.58;66.62;102074.55;1692587;84;26430;-62
2022/02/09 20:32:57;;;;;;;26.33;12.13;;;;;;;2.62;66.75;102081.03;1625286;86;25834;-63
2022/02/09 20:35:22;;;;;;;34.90;12.93;;;;;;;2.61;66.62;102076.63;1649698;85;28204;-62
2022/02/09 20:37:52;;;;;;;27.58;13.35;;;;;;;2.62;66.55;102065.56;1649262;86;25701;-63
2022/02/09 20:40:33;;;;;;;32.45;13.13;;;;;;;2.66;66.59;102072.05;1677946;85;25728;-62
2022/02/09 20:43:00;;;;;;;25.88;13.60;;;;;;;2.70;66.51;102071.48;1676161;84;26470;-63
2022/02/09 20:48:07;;;;;;;39.48;14.28;;;;;;;2.74;66.25;102083.72;1678085;84;28729;-62
2022/02/09 20:50:32;;;;;;;29.37;13.78;;;;;;;2.71;66.45;102080.30;1684930;83;26404;-63
2022/02/09 20:52:59;;;;;;;30.90;14.25;;;;;;;2.65;66.24;102086.69;1696598;84;25741;-63
2022/02/09 20:55:27;;;;;;;41.35;15.55;;;;;;;2.62;66.40;102086.34;1696860;83;25799;-62
2022/02/09 20:57:54;;;;;;;28.07;14.10;;;;;;;2.60;66.37;102089.98;1696588;84;25789;-62
2022/02/09 21:00:32;;;;;;;27.85;13.83;;;;;;;2.60;66.32;102092.64;1683993;84;27505;-62
2022/02/09 21:03:03;;;;;;;36.50;13.75;;;;;;;2.65;66.35;102092.00;1675652;85;25848;-63
2022/02/09 21:10:55;;;;;;;30.10;13.85;;;;;;;2.75;66.80;102086.78;1697467;84;25801;-62
2022/02/09 21:13:36;;;;;;;28.38;14.05;;;;;;;2.81;67.00;102079.06;1697501;84;27468;-62
2022/02/09 21:16:12;;;;;;;39.00;16.12;;;;;;;2.85;67.08;102094.00;1697563;84;25799;-62
2022/02/09 21:21:15;;;;;;;32.45;14.55;;;;;;;2.92;67.46;102085.33;1682802;84;25795;-61
2022/02/09 21:24:01;;;;;;;26.93;13.93;;;;;;;2.93;67.34;102089.28;1668004;85;25971;-62
2022/02/09 21:54:42;;;;;;;34.63;17.48;;;;;;;2.78;67.31;102066.76;1665411;86;25691;-62
2022/02/09 21:57:15;;;;;;;33.55;15.38;;;;;;;2.83;68.12;102075.91;1663570;85;25660;-62
2022/02/09 22:32:03;;;;;;;40.00;17.55;;;;;;;3.24;68.53;102075.33;1683570;83;27549;-62
2022/02/09 22:48:15;;;;;;;32.48;15.95;;;;;;;3.13;67.69;102077.92;1651661;86;25860;-63
2022/02/09 22:55:47;;;;;;;30.97;14.83;;;;;;;2.94;67.57;102079.50;1652222;85;25879;-63
2022/02/09 22:58:15;;;;;;;31.15;15.45;;;;;;;2.89;67.72;102082.80;1681195;83;27499;-63
2022/02/09 23:06:45;;;;;;;30.43;14.38;;;;;;;2.80;67.63;102081.31;1684143;85;25714;-64
2022/02/09 23:13:42;;;;;;;25.08;13.70;;;;;;;2.76;68.27;102077.90;1680485;84;25872;-64
2022/02/09 23:55:22;;;;;;;31.05;16.70;;;;;;;2.98;67.80;102081.14;1672543;84;25738;-62
2022/02/09 23:57:13;;;;;;;38.55;16.30;;;;;;;2.95;67.86;102075.48;1655666;84;25684;-62
